sensor_id;sensor_type;location;lat;lon;timestamp;P1;durP1;ratioP1;P2;durP2;ratioP2
27899;SDS011;15243;50.726;7.080;2022-09-13T00:00:57;7.15;;;4.45;;
27899;SDS011;15243;50.726;7.080;2022-09-13T00:03:25;7.85;;;4.43;;
27899;SDS011;15243;50.726;7.080;2022-09-13T00:05:52;7.47;;;4.35;;
27899;SDS011;15243;50.726;7.080;2022-09-13T00:08:19;6.05;;;4.07;;
27899;SDS011;15243;50.726;7.080;2022-09-13T00:10:46;6.07;;;3.80;;
27899;SDS011;15243;50.726;7.080;2022-09-13T00:13:14;6.10;;;4.35;;
27899;SDS011;15243;50.726;7.080;2022-09-13T00:15:46;4.57;;;4.18;;
27899;SDS011;15243;50.726;7.080;2022-09-13T00:18:15;4.63;;;4.13;;
27899;SDS011;15243;50.726;7.080;2022-09-13T00:20:43;4.88;;;4.18;;
27899;SDS011;15243;50.726;7.080;2022-09-13T00:23:10;4.40;;;4.00;;
27899;SDS011;15243;50.726;7.080;2022-09-13T00:25:38;7.35;;;4.05;;
27899;SDS011;15243;50.726;7.080;2022-09-13T00:28:05;4.95;;;4.03;;
27899;SDS011;15243;50.726;7.080;2022-09-13T00:30:32;4.85;;;3.60;;
27899;SDS011;15243;50.726;7.080;2022-09-13T00:32:59;4.80;;;4.28;;
27899;SDS011;15243;50.726;7.080;2022-09-13T00:35:30;4.55;;;4.15;;
27899;SDS011;15243;50.726;7.080;2022-09-13T00:38:00;6.13;;;4.28;;
27899;SDS011;15243;50.726;7.080;2022-09-13T00:40:27;5.57;;;3.80;;
27899;SDS011;15243;50.726;7.080;2022-09-13T00:42:55;4.88;;;3.92;;
27899;SDS011;15243;50.726;7.080;2022-09-13T00:45:22;5.82;;;4.05;;
27899;SDS011;15243;50.726;7.080;2022-09-13T00:50:23;6.30;;;4.00;;
27899;SDS011;15243;50.726;7.080;2022-09-13T00:55:31;5.63;;;3.90;;
27899;SDS011;15243;50.726;7.080;2022-09-13T00:58:22;5.28;;;4.10;;
27899;SDS011;15243;50.726;7.080;2022-09-13T01:00:56;6.18;;;4.20;;
27899;SDS011;15243;50.726;7.080;2022-09-13T01:03:26;5.18;;;3.83;;
27899;SDS011;15243;50.726;7.080;2022-09-13T01:06:07;8.02;;;4.30;;
27899;SDS011;15243;50.726;7.080;2022-09-13T01:08:37;6.13;;;3.63;;
27899;SDS011;15243;50.726;7.080;2022-09-13T01:11:08;5.47;;;4.13;;
27899;SDS011;15243;50.726;7.080;2022-09-13T01:13:42;7.35;;;3.80;;
27899;SDS011;15243;50.726;7.080;2022-09-13T01:16:10;4.63;;;3.85;;
27899;SDS011;15243;50.726;7.080;2022-09-13T01:18:37;5.43;;;4.38;;
27899;SDS011;15243;50.726;7.080;2022-09-13T01:21:12;5.55;;;4.38;;
27899;SDS011;15243;50.726;7.080;2022-09-13T01:24:08;5.68;;;4.03;;
27899;SDS011;15243;50.726;7.080;2022-09-13T01:32:06;7.50;;;4.20;;
27899;SDS011;15243;50.726;7.080;2022-09-13T01:37:45;4.35;;;3.90;;
27899;SDS011;15243;50.726;7.080;2022-09-13T01:40:26;3.72;;;3.40;;
27899;SDS011;15243;50.726;7.080;2022-09-13T01:46:30;5.95;;;4.25;;
27899;SDS011;15243;50.726;7.080;2022-09-13T01:49:20;6.43;;;4.20;;
27899;SDS011;15243;50.726;7.080;2022-09-13T01:52:00;6.82;;;3.92;;
27899;SDS011;15243;50.726;7.080;2022-09-13T01:54:38;5.43;;;3.88;;
27899;SDS011;15243;50.726;7.080;2022-09-13T02:02:29;5.18;;;4.32;;
27899;SDS011;15243;50.726;7.080;2022-09-13T02:05:04;4.40;;;4.00;;
27899;SDS011;15243;50.726;7.080;2022-09-13T02:07:42;6.50;;;4.00;;
27899;SDS011;15243;50.726;7.080;2022-09-13T02:10:19;5.53;;;4.00;;
27899;SDS011;15243;50.726;7.080;2022-09-13T02:12:51;5.22;;;3.80;;
27899;SDS011;15243;50.726;7.080;2022-09-13T02:15:43;6.55;;;4.35;;
27899;SDS011;15243;50.726;7.080;2022-09-13T02:18:27;5.85;;;4.50;;
27899;SDS011;15243;50.726;7.080;2022-09-13T02:21:01;5.43;;;4.50;;
27899;SDS011;15243;50.726;7.080;2022-09-13T02:23:52;8.38;;;4.30;;
27899;SDS011;15243;50.726;7.080;2022-09-13T02:26:22;5.30;;;4.55;;
27899;SDS011;15243;50.726;7.080;2022-09-13T02:28:53;5.80;;;4.38;;
27899;SDS011;15243;50.726;7.080;2022-09-13T02:31:37;7.90;;;5.03;;
27899;SDS011;15243;50.726;7.080;2022-09-13T02:34:14;5.43;;;4.40;;
27899;SDS011;15243;50.726;7.080;2022-09-13T02:36:48;7.95;;;4.57;;
27899;SDS011;15243;50.726;7.080;2022-09-13T02:39:18;6.63;;;4.80;;
27899;SDS011;15243;50.726;7.080;2022-09-13T02:52:45;6.40;;;4.35;;
27899;SDS011;15243;50.726;7.080;2022-09-13T02:58:24;5.05;;;4.30;;
27899;SDS011;15243;50.726;7.080;2022-09-13T03:00:42;5.43;;;4.65;;
27899;SDS011;15243;50.726;7.080;2022-09-13T03:03:10;5.47;;;4.05;;
27899;SDS011;15243;50.726;7.080;2022-09-13T03:05:39;7.05;;;4.35;;
27899;SDS011;15243;50.726;7.080;2022-09-13T03:08:07;5.75;;;4.32;;
27899;SDS011;15243;50.726;7.080;2022-09-13T03:10:43;4.75;;;4.00;;
27899;SDS011;15243;50.726;7.080;2022-09-13T03:13:21;5.18;;;4.30;;
27899;SDS011;15243;50.726;7.080;2022-09-13T03:16:20;5.32;;;4.13;;
27899;SDS011;15243;50.726;7.080;2022-09-13T03:45:44;6.55;;;4.78;;
27899;SDS011;15243;50.726;7.080;2022-09-13T03:48:15;4.95;;;4.47;;
27899;SDS011;15243;50.726;7.080;2022-09-13T03:50:44;6.80;;;4.65;;
27899;SDS011;15243;50.726;7.080;2022-09-13T03:53:13;5.97;;;4.88;;
27899;SDS011;15243;50.726;7.080;2022-09-13T03:55:49;9.57;;;4.82;;
27899;SDS011;15243;50.726;7.080;2022-09-13T03:58:17;7.75;;;4.80;;
27899;SDS011;15243;50.726;7.080;2022-09-13T04:00:46;7.97;;;4.90;;
27899;SDS011;15243;50.726;7.080;2022-09-13T04:03:13;7.75;;;4.97;;
27899;SDS011;15243;50.726;7.080;2022-09-13T04:05:40;8.13;;;5.60;;
27899;SDS011;15243;50.726;7.080;2022-09-13T04:08:07;7.90;;;4.70;;
27899;SDS011;15243;50.726;7.080;2022-09-13T04:10:34;10.98;;;4.57;;
27899;SDS011;15243;50.726;7.080;2022-09-13T04:13:03;8.82;;;4.72;;
27899;SDS011;15243;50.726;7.080;2022-09-13T04:15:30;6.38;;;4.85;;
27899;SDS011;15243;50.726;7.080;2022-09-13T04:17:57;7.80;;;4.60;;
27899;SDS011;15243;50.726;7.080;2022-09-13T04:20:25;7.93;;;4.90;;
27899;SDS011;15243;50.726;7.080;2022-09-13T04:22:52;6.20;;;4.97;;
27899;SDS011;15243;50.726;7.080;2022-09-13T04:25:20;13.35;;;5.45;;
27899;SDS011;15243;50.726;7.080;2022-09-13T04:27:52;6.45;;;4.53;;
27899;SDS011;15243;50.726;7.080;2022-09-13T04:30:21;6.75;;;4.35;;
27899;SDS011;15243;50.726;7.080;2022-09-13T04:32:48;7.28;;;4.38;;
27899;SDS011;15243;50.726;7.080;2022-09-13T04:35:15;5.95;;;4.32;;
27899;SDS011;15243;50.726;7.080;2022-09-13T04:37:44;5.57;;;4.30;;
27899;SDS011;15243;50.726;7.080;2022-09-13T04:40:11;6.82;;;4.05;;
27899;SDS011;15243;50.726;7.080;2022-09-13T04:42:39;5.32;;;4.20;;
27899;SDS011;15243;50.726;7.080;2022-09-13T04:45:09;9.30;;;4.43;;
27899;SDS011;15243;50.726;7.080;2022-09-13T04:47:36;7.28;;;4.20;;
27899;SDS011;15243;50.726;7.080;2022-09-13T04:50:03;5.15;;;3.50;;
27899;SDS011;15243;50.726;7.080;2022-09-13T04:52:36;6.88;;;4.53;;
27899;SDS011;15243;50.726;7.080;2022-09-13T04:55:03;7.55;;;4.65;;
27899;SDS011;15243;50.726;7.080;2022-09-13T04:57:30;6.15;;;4.03;;
27899;SDS011;15243;50.726;7.080;2022-09-13T04:59:57;5.07;;;4.47;;
27899;SDS011;15243;50.726;7.080;2022-09-13T05:02:24;5.05;;;4.10;;
27899;SDS011;15243;50.726;7.080;2022-09-13T05:04:51;6.97;;;4.78;;
27899;SDS011;15243;50.726;7.080;2022-09-13T05:07:18;6.47;;;4.15;;
27899;SDS011;15243;50.726;7.080;2022-09-13T05:09:44;7.90;;;4.35;;
27899;SDS011;15243;50.726;7.080;2022-09-13T05:12:11;4.38;;;3.95;;
27899;SDS011;15243;50.726;7.080;2022-09-13T05:14:38;5.97;;;4.43;;
27899;SDS011;15243;50.726;7.080;2022-09-13T05:17:05;5.15;;;4.28;;
27899;SDS011;15243;50.726;7.080;2022-09-13T05:19:32;6.70;;;4.50;;
27899;SDS011;15243;50.726;7.080;2022-09-13T05:22:00;6.50;;;4.20;;
27899;SDS011;15243;50.726;7.080;2022-09-13T05:24:28;5.75;;;4.22;;
27899;SDS011;15243;50.726;7.080;2022-09-13T05:26:55;6.22;;;4.63;;
27899;SDS011;15243;50.726;7.080;2022-09-13T05:29:22;11.80;;;4.13;;
27899;SDS011;15243;50.726;7.080;2022-09-13T05:31:49;7.00;;;4.90;;
27899;SDS011;15243;50.726;7.080;2022-09-13T05:34:16;8.30;;;4.10;;
27899;SDS011;15243;50.726;7.080;2022-09-13T05:36:43;7.10;;;4.22;;
27899;SDS011;15243;50.726;7.080;2022-09-13T05:39:14;6.40;;;3.90;;
27899;SDS011;15243;50.726;7.080;2022-09-13T05:42:03;10.50;;;4.78;;
27899;SDS011;15243;50.726;7.080;2022-09-13T05:44:30;5.43;;;4.07;;
27899;SDS011;15243;50.726;7.080;2022-09-13T05:46:57;7.85;;;5.00;;
27899;SDS011;15243;50.726;7.080;2022-09-13T05:49:24;5.30;;;4.20;;
27899;SDS011;15243;50.726;7.080;2022-09-13T05:51:50;10.45;;;4.45;;
27899;SDS011;15243;50.726;7.080;2022-09-13T05:54:17;8.55;;;4.80;;
27899;SDS011;15243;50.726;7.080;2022-09-13T05:56:44;7.68;;;4.40;;
27899;SDS011;15243;50.726;7.080;2022-09-13T05:59:12;7.00;;;4.30;;
27899;SDS011;15243;50.726;7.080;2022-09-13T06:01:42;7.75;;;4.60;;
27899;SDS011;15243;50.726;7.080;2022-09-13T06:04:09;8.82;;;4.47;;
27899;SDS011;15243;50.726;7.080;2022-09-13T06:06:37;9.60;;;4.65;;
27899;SDS011;15243;50.726;7.080;2022-09-13T06:09:04;8.10;;;4.90;;
27899;SDS011;15243;50.726;7.080;2022-09-13T06:11:33;11.18;;;5.13;;
27899;SDS011;15243;50.726;7.080;2022-09-13T06:14:00;9.00;;;4.68;;
27899;SDS011;15243;50.726;7.080;2022-09-13T06:16:27;12.27;;;4.85;;
27899;SDS011;15243;50.726;7.080;2022-09-13T06:18:54;12.77;;;4.20;;
27899;SDS011;15243;50.726;7.080;2022-09-13T06:21:22;9.70;;;4.63;;
27899;SDS011;15243;50.726;7.080;2022-09-13T06:23:54;5.20;;;3.50;;
27899;SDS011;15243;50.726;7.080;2022-09-13T06:26:22;7.90;;;4.47;;
27899;SDS011;15243;50.726;7.080;2022-09-13T06:28:51;8.05;;;4.60;;
27899;SDS011;15243;50.726;7.080;2022-09-13T06:31:20;5.72;;;4.10;;
27899;SDS011;15243;50.726;7.080;2022-09-13T06:33:53;8.90;;;4.43;;
27899;SDS011;15243;50.726;7.080;2022-09-13T06:36:22;11.35;;;4.45;;
27899;SDS011;15243;50.726;7.080;2022-09-13T06:38:50;8.02;;;5.10;;
27899;SDS011;15243;50.726;7.080;2022-09-13T06:41:17;7.22;;;5.00;;
27899;SDS011;15243;50.726;7.080;2022-09-13T06:43:50;10.95;;;4.57;;
27899;SDS011;15243;50.726;7.080;2022-09-13T06:46:19;4.95;;;4.35;;
27899;SDS011;15243;50.726;7.080;2022-09-13T06:48:50;10.00;;;5.00;;
27899;SDS011;15243;50.726;7.080;2022-09-13T06:51:18;7.43;;;4.07;;
27899;SDS011;15243;50.726;7.080;2022-09-13T06:53:48;13.35;;;5.00;;
27899;SDS011;15243;50.726;7.080;2022-09-13T06:56:25;8.80;;;4.65;;
27899;SDS011;15243;50.726;7.080;2022-09-13T06:58:58;9.55;;;4.72;;
27899;SDS011;15243;50.726;7.080;2022-09-13T07:01:32;13.85;;;4.63;;
27899;SDS011;15243;50.726;7.080;2022-09-13T07:04:01;8.38;;;4.30;;
27899;SDS011;15243;50.726;7.080;2022-09-13T07:06:35;6.35;;;4.03;;
27899;SDS011;15243;50.726;7.080;2022-09-13T07:11:33;6.25;;;4.15;;
27899;SDS011;15243;50.726;7.080;2022-09-13T07:14:01;6.50;;;4.32;;
27899;SDS011;15243;50.726;7.080;2022-09-13T07:16:29;8.40;;;3.85;;
27899;SDS011;15243;50.726;7.080;2022-09-13T07:19:02;9.23;;;4.43;;
27899;SDS011;15243;50.726;7.080;2022-09-13T07:21:31;6.93;;;4.13;;
27899;SDS011;15243;50.726;7.080;2022-09-13T07:23:59;16.10;;;4.22;;
27899;SDS011;15243;50.726;7.080;2022-09-13T07:26:26;7.05;;;3.92;;
27899;SDS011;15243;50.726;7.080;2022-09-13T07:28:55;8.35;;;3.88;;
27899;SDS011;15243;50.726;7.080;2022-09-13T07:31:31;6.93;;;3.42;;
27899;SDS011;15243;50.726;7.080;2022-09-13T07:34:00;6.90;;;3.78;;
27899;SDS011;15243;50.726;7.080;2022-09-13T07:36:30;9.75;;;3.85;;
27899;SDS011;15243;50.726;7.080;2022-09-13T07:38:58;6.80;;;3.70;;
27899;SDS011;15243;50.726;7.080;2022-09-13T07:41:27;5.82;;;3.92;;
27899;SDS011;15243;50.726;7.080;2022-09-13T07:43:58;11.35;;;3.55;;
27899;SDS011;15243;50.726;7.080;2022-09-13T07:46:31;4.63;;;3.60;;
27899;SDS011;15243;50.726;7.080;2022-09-13T07:49:03;5.45;;;3.33;;
27899;SDS011;15243;50.726;7.080;2022-09-13T07:51:34;5.30;;;3.15;;
27899;SDS011;15243;50.726;7.080;2022-09-13T07:54:06;4.78;;;3.80;;
27899;SDS011;15243;50.726;7.080;2022-09-13T07:56:41;5.68;;;3.22;;
27899;SDS011;15243;50.726;7.080;2022-09-13T07:59:16;8.10;;;3.47;;
27899;SDS011;15243;50.726;7.080;2022-09-13T08:01:58;3.42;;;2.80;;
27899;SDS011;15243;50.726;7.080;2022-09-13T08:04:27;8.48;;;3.67;;
27899;SDS011;15243;50.726;7.080;2022-09-13T08:07:00;11.70;;;3.80;;
27899;SDS011;15243;50.726;7.080;2022-09-13T08:09:27;4.75;;;3.13;;
27899;SDS011;15243;50.726;7.080;2022-09-13T08:11:55;4.43;;;3.45;;
27899;SDS011;15243;50.726;7.080;2022-09-13T08:14:22;5.05;;;3.20;;
27899;SDS011;15243;50.726;7.080;2022-09-13T08:16:56;7.38;;;3.03;;
27899;SDS011;15243;50.726;7.080;2022-09-13T08:19:23;10.07;;;3.53;;
27899;SDS011;15243;50.726;7.080;2022-09-13T08:21:50;6.82;;;3.33;;
27899;SDS011;15243;50.726;7.080;2022-09-13T08:24:20;9.02;;;3.33;;
27899;SDS011;15243;50.726;7.080;2022-09-13T08:26:49;8.35;;;3.67;;
27899;SDS011;15243;50.726;7.080;2022-09-13T08:29:17;6.00;;;2.97;;
27899;SDS011;15243;50.726;7.080;2022-09-13T08:31:45;6.72;;;2.92;;
27899;SDS011;15243;50.726;7.080;2022-09-13T08:34:15;4.82;;;3.30;;
27899;SDS011;15243;50.726;7.080;2022-09-13T08:36:44;5.95;;;3.05;;
27899;SDS011;15243;50.726;7.080;2022-09-13T08:39:13;7.03;;;3.30;;
27899;SDS011;15243;50.726;7.080;2022-09-13T08:44:24;7.35;;;3.05;;
27899;SDS011;15243;50.726;7.080;2022-09-13T08:49:41;7.32;;;2.67;;
27899;SDS011;15243;50.726;7.080;2022-09-13T08:54:50;6.07;;;2.70;;
27899;SDS011;15243;50.726;7.080;2022-09-13T09:00:05;18.10;;;3.85;;
27899;SDS011;15243;50.726;7.080;2022-09-13T09:03:10;7.57;;;2.75;;
27899;SDS011;15243;50.726;7.080;2022-09-13T09:14:03;11.85;;;3.10;;
27899;SDS011;15243;50.726;7.080;2022-09-13T09:19:49;6.10;;;3.15;;
27899;SDS011;15243;50.726;7.080;2022-09-13T09:22:37;4.70;;;2.40;;
27899;SDS011;15243;50.726;7.080;2022-09-13T09:25:10;9.25;;;2.72;;
27899;SDS011;15243;50.726;7.080;2022-09-13T09:27:42;6.50;;;3.13;;
27899;SDS011;15243;50.726;7.080;2022-09-13T09:30:14;8.18;;;2.70;;
27899;SDS011;15243;50.726;7.080;2022-09-13T09:32:45;7.93;;;2.90;;
27899;SDS011;15243;50.726;7.080;2022-09-13T09:40:52;4.40;;;2.30;;
27899;SDS011;15243;50.726;7.080;2022-09-13T09:43:25;4.38;;;2.33;;
27899;SDS011;15243;50.726;7.080;2022-09-13T09:46:02;4.88;;;2.60;;
27899;SDS011;15243;50.726;7.080;2022-09-13T09:48:36;4.20;;;2.40;;
27899;SDS011;15243;50.726;7.080;2022-09-13T09:51:08;3.50;;;2.30;;
27899;SDS011;15243;50.726;7.080;2022-09-13T09:53:40;3.85;;;1.98;;
27899;SDS011;15243;50.726;7.080;2022-09-13T09:56:17;5.53;;;2.50;;
27899;SDS011;15243;50.726;7.080;2022-09-13T09:58:51;6.30;;;2.60;;
27899;SDS011;15243;50.726;7.080;2022-09-13T10:01:22;6.75;;;2.70;;
27899;SDS011;15243;50.726;7.080;2022-09-13T10:04:05;6.68;;;2.30;;
27899;SDS011;15243;50.726;7.080;2022-09-13T10:06:47;6.07;;;2.10;;
27899;SDS011;15243;50.726;7.080;2022-09-13T10:09:18;3.83;;;2.00;;
27899;SDS011;15243;50.726;7.080;2022-09-13T10:17:14;5.82;;;2.00;;
27899;SDS011;15243;50.726;7.080;2022-09-13T10:22:20;10.57;;;2.30;;
27899;SDS011;15243;50.726;7.080;2022-09-13T10:24:48;3.80;;;1.80;;
27899;SDS011;15243;50.726;7.080;2022-09-13T10:27:32;2.25;;;1.63;;
27899;SDS011;15243;50.726;7.080;2022-09-13T10:30:03;4.22;;;2.10;;
27899;SDS011;15243;50.726;7.080;2022-09-13T10:32:31;3.60;;;1.88;;
27899;SDS011;15243;50.726;7.080;2022-09-13T10:35:05;5.18;;;2.00;;
27899;SDS011;15243;50.726;7.080;2022-09-13T10:37:41;5.05;;;2.08;;
27899;SDS011;15243;50.726;7.080;2022-09-13T10:40:15;4.53;;;2.05;;
27899;SDS011;15243;50.726;7.080;2022-09-13T10:42:50;5.93;;;2.38;;
27899;SDS011;15243;50.726;7.080;2022-09-13T10:45:21;5.07;;;1.88;;
27899;SDS011;15243;50.726;7.080;2022-09-13T10:47:51;4.82;;;2.65;;
27899;SDS011;15243;50.726;7.080;2022-09-13T10:50:39;7.75;;;2.22;;
27899;SDS011;15243;50.726;7.080;2022-09-13T10:53:27;4.03;;;1.80;;
27899;SDS011;15243;50.726;7.080;2022-09-13T10:56:17;5.50;;;2.08;;
27899;SDS011;15243;50.726;7.080;2022-09-13T10:58:50;6.18;;;1.90;;
27899;SDS011;15243;50.726;7.080;2022-09-13T11:10:12;5.70;;;2.17;;
27899;SDS011;15243;50.726;7.080;2022-09-13T11:16:17;3.90;;;1.90;;
27899;SDS011;15243;50.726;7.080;2022-09-13T11:21:54;4.75;;;2.20;;
27899;SDS011;15243;50.726;7.080;2022-09-13T11:32:25;3.70;;;1.75;;
27899;SDS011;15243;50.726;7.080;2022-09-13T11:35:03;8.30;;;2.08;;
27899;SDS011;15243;50.726;7.080;2022-09-13T11:46:43;4.50;;;1.83;;
27899;SDS011;15243;50.726;7.080;2022-09-13T11:57:55;5.13;;;1.83;;
27899;SDS011;15243;50.726;7.080;2022-09-13T12:00:38;2.67;;;1.67;;
27899;SDS011;15243;50.726;7.080;2022-09-13T12:06:12;3.33;;;1.80;;
27899;SDS011;15243;50.726;7.080;2022-09-13T12:08:58;2.00;;;1.25;;
27899;SDS011;15243;50.726;7.080;2022-09-13T12:11:30;4.88;;;1.55;;
27899;SDS011;15243;50.726;7.080;2022-09-13T12:14:10;5.03;;;1.75;;
27899;SDS011;15243;50.726;7.080;2022-09-13T12:16:46;2.45;;;1.75;;
27899;SDS011;15243;50.726;7.080;2022-09-13T12:27:28;2.58;;;1.90;;
27899;SDS011;15243;50.726;7.080;2022-09-13T12:30:16;3.25;;;1.40;;
27899;SDS011;15243;50.726;7.080;2022-09-13T12:32:45;5.45;;;1.70;;
27899;SDS011;15243;50.726;7.080;2022-09-13T12:35:24;3.20;;;1.48;;
27899;SDS011;15243;50.726;7.080;2022-09-13T12:38:05;4.10;;;2.00;;
27899;SDS011;15243;50.726;7.080;2022-09-13T12:41:12;3.75;;;1.25;;
27899;SDS011;15243;50.726;7.080;2022-09-13T12:44:57;4.07;;;1.70;;
27899;SDS011;15243;50.726;7.080;2022-09-13T12:53:02;4.07;;;1.73;;
27899;SDS011;15243;50.726;7.080;2022-09-13T12:58:53;3.60;;;1.20;;
27899;SDS011;15243;50.726;7.080;2022-09-13T13:01:44;4.35;;;1.58;;
27899;SDS011;15243;50.726;7.080;2022-09-13T13:04:26;3.93;;;1.43;;
27899;SDS011;15243;50.726;7.080;2022-09-13T13:06:57;6.93;;;1.85;;
27899;SDS011;15243;50.726;7.080;2022-09-13T13:09:43;1.92;;;1.17;;
27899;SDS011;15243;50.726;7.080;2022-09-13T13:12:28;5.65;;;1.50;;
27899;SDS011;15243;50.726;7.080;2022-09-13T13:17:49;9.18;;;1.70;;
27899;SDS011;15243;50.726;7.080;2022-09-13T13:23:32;9.40;;;1.48;;
27899;SDS011;15243;50.726;7.080;2022-09-13T13:26:08;5.50;;;1.65;;
27899;SDS011;15243;50.726;7.080;2022-09-13T13:31:43;9.52;;;1.90;;
27899;SDS011;15243;50.726;7.080;2022-09-13T13:39:31;4.57;;;1.80;;
27899;SDS011;15243;50.726;7.080;2022-09-13T13:49:48;12.18;;;1.45;;
27899;SDS011;15243;50.726;7.080;2022-09-13T13:55:02;5.90;;;1.33;;
27899;SDS011;15243;50.726;7.080;2022-09-13T13:57:51;6.35;;;1.40;;
27899;SDS011;15243;50.726;7.080;2022-09-13T14:00:27;2.38;;;0.98;;
27899;SDS011;15243;50.726;7.080;2022-09-13T14:03:22;2.22;;;1.17;;
27899;SDS011;15243;50.726;7.080;2022-09-13T14:05:52;1.75;;;1.10;;
27899;SDS011;15243;50.726;7.080;2022-09-13T14:08:43;1.83;;;0.93;;
27899;SDS011;15243;50.726;7.080;2022-09-13T14:19:49;2.78;;;0.90;;
27899;SDS011;15243;50.726;7.080;2022-09-13T14:22:23;4.50;;;1.30;;
27899;SDS011;15243;50.726;7.080;2022-09-13T14:24:52;2.25;;;1.13;;
27899;SDS011;15243;50.726;7.080;2022-09-13T14:27:27;2.95;;;1.25;;
27899;SDS011;15243;50.726;7.080;2022-09-13T14:29:59;7.97;;;1.85;;
27899;SDS011;15243;50.726;7.080;2022-09-13T14:32:31;2.88;;;1.15;;
27899;SDS011;15243;50.726;7.080;2022-09-13T14:35:22;5.50;;;1.25;;
27899;SDS011;15243;50.726;7.080;2022-09-13T14:38:11;7.75;;;1.40;;
27899;SDS011;15243;50.726;7.080;2022-09-13T14:40:48;3.58;;;1.30;;
27899;SDS011;15243;50.726;7.080;2022-09-13T14:43:21;8.82;;;1.00;;
27899;SDS011;15243;50.726;7.080;2022-09-13T14:48:31;3.15;;;1.50;;
27899;SDS011;15243;50.726;7.080;2022-09-13T14:51:21;2.55;;;1.30;;
27899;SDS011;15243;50.726;7.080;2022-09-13T14:53:57;2.65;;;1.15;;
27899;SDS011;15243;50.726;7.080;2022-09-13T14:56:33;3.75;;;1.50;;
27899;SDS011;15243;50.726;7.080;2022-09-13T14:59:28;3.88;;;1.70;;
27899;SDS011;15243;50.726;7.080;2022-09-13T15:02:04;4.38;;;1.42;;
27899;SDS011;15243;50.726;7.080;2022-09-13T15:04:43;4.13;;;1.75;;
27899;SDS011;15243;50.726;7.080;2022-09-13T15:07:26;5.10;;;1.60;;
27899;SDS011;15243;50.726;7.080;2022-09-13T15:09:56;2.90;;;1.30;;
27899;SDS011;15243;50.726;7.080;2022-09-13T15:12:31;4.40;;;1.70;;
27899;SDS011;15243;50.726;7.080;2022-09-13T15:20:55;2.88;;;1.27;;
27899;SDS011;15243;50.726;7.080;2022-09-13T15:23:40;4.57;;;1.80;;
27899;SDS011;15243;50.726;7.080;2022-09-13T15:26:21;7.20;;;1.85;;
27899;SDS011;15243;50.726;7.080;2022-09-13T15:28:57;7.85;;;1.63;;
27899;SDS011;15243;50.726;7.080;2022-09-13T15:31:31;3.78;;;1.70;;
27899;SDS011;15243;50.726;7.080;2022-09-13T15:39:42;6.13;;;1.50;;
27899;SDS011;15243;50.726;7.080;2022-09-13T15:42:09;5.30;;;1.42;;
27899;SDS011;15243;50.726;7.080;2022-09-13T15:44:36;7.07;;;1.50;;
27899;SDS011;15243;50.726;7.080;2022-09-13T15:47:09;4.15;;;1.70;;
27899;SDS011;15243;50.726;7.080;2022-09-13T15:49:45;3.72;;;1.73;;
27899;SDS011;15243;50.726;7.080;2022-09-13T15:52:15;4.97;;;1.42;;
27899;SDS011;15243;50.726;7.080;2022-09-13T15:54:45;6.65;;;1.75;;
27899;SDS011;15243;50.726;7.080;2022-09-13T15:57:24;4.53;;;1.60;;
27899;SDS011;15243;50.726;7.080;2022-09-13T15:59:52;4.75;;;1.73;;
27899;SDS011;15243;50.726;7.080;2022-09-13T16:02:22;3.13;;;1.50;;
27899;SDS011;15243;50.726;7.080;2022-09-13T16:04:51;6.15;;;1.92;;
27899;SDS011;15243;50.726;7.080;2022-09-13T16:07:19;4.95;;;1.30;;
27899;SDS011;15243;50.726;7.080;2022-09-13T16:09:46;6.40;;;1.50;;
27899;SDS011;15243;50.726;7.080;2022-09-13T16:12:14;4.50;;;1.50;;
27899;SDS011;15243;50.726;7.080;2022-09-13T16:14:44;5.15;;;1.60;;
27899;SDS011;15243;50.726;7.080;2022-09-13T16:17:21;5.05;;;1.75;;
27899;SDS011;15243;50.726;7.080;2022-09-13T16:19:50;4.97;;;1.70;;
27899;SDS011;15243;50.726;7.080;2022-09-13T16:22:17;3.45;;;1.80;;
27899;SDS011;15243;50.726;7.080;2022-09-13T16:24:44;7.22;;;2.15;;
27899;SDS011;15243;50.726;7.080;2022-09-13T16:27:12;2.85;;;1.90;;
27899;SDS011;15243;50.726;7.080;2022-09-13T16:29:41;9.60;;;2.28;;
27899;SDS011;15243;50.726;7.080;2022-09-13T16:32:08;6.70;;;2.88;;
27899;SDS011;15243;50.726;7.080;2022-09-13T16:34:35;7.65;;;3.08;;
27899;SDS011;15243;50.726;7.080;2022-09-13T16:37:01;8.77;;;2.58;;
27899;SDS011;15243;50.726;7.080;2022-09-13T16:39:29;8.65;;;2.90;;
27899;SDS011;15243;50.726;7.080;2022-09-13T16:41:56;13.45;;;2.67;;
27899;SDS011;15243;50.726;7.080;2022-09-13T16:44:23;6.72;;;2.60;;
27899;SDS011;15243;50.726;7.080;2022-09-13T16:46:50;9.23;;;3.03;;
27899;SDS011;15243;50.726;7.080;2022-09-13T16:49:17;8.80;;;3.13;;
27899;SDS011;15243;50.726;7.080;2022-09-13T16:51:44;7.85;;;2.78;;
27899;SDS011;15243;50.726;7.080;2022-09-13T16:54:11;10.00;;;3.40;;
27899;SDS011;15243;50.726;7.080;2022-09-13T16:56:37;8.80;;;3.25;;
27899;SDS011;15243;50.726;7.080;2022-09-13T16:59:04;11.15;;;3.92;;
27899;SDS011;15243;50.726;7.080;2022-09-13T17:01:31;9.85;;;3.60;;
27899;SDS011;15243;50.726;7.080;2022-09-13T17:03:58;11.85;;;4.00;;
27899;SDS011;15243;50.726;7.080;2022-09-13T17:06:25;13.10;;;3.78;;
27899;SDS011;15243;50.726;7.080;2022-09-13T17:08:56;15.25;;;4.47;;
27899;SDS011;15243;50.726;7.080;2022-09-13T17:11:30;12.80;;;4.35;;
27899;SDS011;15243;50.726;7.080;2022-09-13T17:13:59;17.40;;;4.93;;
27899;SDS011;15243;50.726;7.080;2022-09-13T17:16:30;14.32;;;4.45;;
27899;SDS011;15243;50.726;7.080;2022-09-13T17:19:01;17.30;;;5.38;;
27899;SDS011;15243;50.726;7.080;2022-09-13T17:21:30;14.75;;;4.38;;
27899;SDS011;15243;50.726;7.080;2022-09-13T17:23:59;12.10;;;4.95;;
27899;SDS011;15243;50.726;7.080;2022-09-13T17:26:26;12.82;;;4.75;;
27899;SDS011;15243;50.726;7.080;2022-09-13T17:28:53;14.20;;;4.20;;
27899;SDS011;15243;50.726;7.080;2022-09-13T17:31:20;13.07;;;4.38;;
27899;SDS011;15243;50.726;7.080;2022-09-13T17:33:47;8.38;;;4.88;;
27899;SDS011;15243;50.726;7.080;2022-09-13T17:36:15;12.82;;;5.00;;
27899;SDS011;15243;50.726;7.080;2022-09-13T17:38:42;12.75;;;5.15;;
27899;SDS011;15243;50.726;7.080;2022-09-13T17:41:13;12.82;;;5.10;;
27899;SDS011;15243;50.726;7.080;2022-09-13T17:43:42;11.75;;;4.95;;
27899;SDS011;15243;50.726;7.080;2022-09-13T17:46:11;14.23;;;5.68;;
27899;SDS011;15243;50.726;7.080;2022-09-13T17:48:43;13.32;;;4.78;;
27899;SDS011;15243;50.726;7.080;2022-09-13T17:51:11;12.35;;;5.20;;
27899;SDS011;15243;50.726;7.080;2022-09-13T17:53:44;13.93;;;5.57;;
27899;SDS011;15243;50.726;7.080;2022-09-13T17:56:17;14.60;;;5.45;;
27899;SDS011;15243;50.726;7.080;2022-09-13T17:58:45;10.32;;;4.88;;
27899;SDS011;15243;50.726;7.080;2022-09-13T18:01:12;13.40;;;5.10;;
27899;SDS011;15243;50.726;7.080;2022-09-13T18:03:40;11.68;;;5.05;;
27899;SDS011;15243;50.726;7.080;2022-09-13T18:06:07;12.73;;;5.40;;
27899;SDS011;15243;50.726;7.080;2022-09-13T18:08:36;12.45;;;5.03;;
27899;SDS011;15243;50.726;7.080;2022-09-13T18:11:04;9.75;;;4.93;;
27899;SDS011;15243;50.726;7.080;2022-09-13T18:13:39;10.63;;;5.20;;
27899;SDS011;15243;50.726;7.080;2022-09-13T18:16:09;8.10;;;4.63;;
27899;SDS011;15243;50.726;7.080;2022-09-13T18:18:45;9.95;;;4.50;;
27899;SDS011;15243;50.726;7.080;2022-09-13T18:21:12;9.02;;;4.75;;
27899;SDS011;15243;50.726;7.080;2022-09-13T18:23:40;10.02;;;4.85;;
27899;SDS011;15243;50.726;7.080;2022-09-13T18:26:07;14.32;;;5.20;;
27899;SDS011;15243;50.726;7.080;2022-09-13T18:28:37;9.32;;;4.93;;
27899;SDS011;15243;50.726;7.080;2022-09-13T18:31:05;17.42;;;5.82;;
27899;SDS011;15243;50.726;7.080;2022-09-13T18:33:35;9.35;;;4.97;;
27899;SDS011;15243;50.726;7.080;2022-09-13T18:36:06;7.72;;;4.57;;
27899;SDS011;15243;50.726;7.080;2022-09-13T18:38:35;7.85;;;4.75;;
27899;SDS011;15243;50.726;7.080;2022-09-13T18:41:06;11.00;;;4.70;;
27899;SDS011;15243;50.726;7.080;2022-09-13T18:43:35;7.72;;;4.40;;
27899;SDS011;15243;50.726;7.080;2022-09-13T18:46:07;9.18;;;4.32;;